createdAt,value
2023-02-28T00:01:33.529Z,59.40
2023-02-28T00:04:05.400Z,60.10
2023-02-28T00:06:38.847Z,59.40
2023-02-28T00:09:10.181Z,59.40
2023-02-28T00:11:39.686Z,59.40
2023-02-28T00:14:13.249Z,59.50
2023-02-28T00:16:42.668Z,59.40
2023-02-28T00:19:13.420Z,59.40
2023-02-28T00:21:46.174Z,59.40
2023-02-28T00:24:17.879Z,59.40
2023-02-28T00:26:49.830Z,59.40
2023-02-28T00:29:20.673Z,59.40
2023-02-28T00:31:52.838Z,59.40
2023-02-28T00:34:20.182Z,59.40
2023-02-28T00:36:51.591Z,59.40
2023-02-28T00:39:23.041Z,59.40
2023-02-28T00:41:54.539Z,59.40
2023-02-28T00:44:25.675Z,59.40
2023-02-28T00:46:59.099Z,59.40
2023-02-28T00:49:28.011Z,59.40
2023-02-28T00:52:02.150Z,59.40
2023-02-28T00:54:30.602Z,59.40
2023-02-28T00:57:01.006Z,59.40
2023-02-28T00:59:32.511Z,59.40
2023-02-28T01:02:07.189Z,59.40
2023-02-28T01:04:38.347Z,59.50
2023-02-28T01:07:08.837Z,59.40
2023-02-28T01:09:38.385Z,59.50
2023-02-28T01:12:07.524Z,59.50
2023-02-28T01:14:35.577Z,59.50
2023-02-28T01:17:06.337Z,59.50
2023-02-28T01:19:39.693Z,59.50
2023-02-28T01:22:14.380Z,59.50
2023-02-28T01:24:48.401Z,59.60
2023-02-28T01:27:19.552Z,59.60
2023-02-28T01:29:52.996Z,59.50
2023-02-28T01:32:24.560Z,59.50
2023-02-28T01:34:52.845Z,59.50
2023-02-28T01:37:24.391Z,59.50
2023-02-28T01:39:53.677Z,59.60
2023-02-28T01:42:22.081Z,59.60
2023-02-28T01:45:19.062Z,59.60
2023-02-28T01:50:49.055Z,59.60
2023-02-28T01:53:29.520Z,59.60
2023-02-28T01:56:01.615Z,59.60
2023-02-28T01:58:34.569Z,59.60
2023-02-28T02:01:07.040Z,59.70
2023-02-28T02:03:43.533Z,59.80
2023-02-28T02:08:58.247Z,59.70
2023-02-28T02:11:29.891Z,59.70
2023-02-28T02:14:14.542Z,59.80
2023-02-28T02:16:53.262Z,59.70
2023-02-28T02:19:55.767Z,59.80
2023-02-28T02:22:56.687Z,59.80
2023-02-28T02:25:53.984Z,59.80
2023-02-28T02:29:03.039Z,59.80
2023-02-28T02:32:09.884Z,59.70
2023-02-28T02:35:01.187Z,59.80
2023-02-28T02:37:55.759Z,59.70
2023-02-28T02:40:51.425Z,59.70
2023-02-28T02:43:26.581Z,59.80
2023-02-28T02:46:23.316Z,59.80
2023-02-28T02:48:57.882Z,59.80
2023-02-28T02:51:25.760Z,59.80
2023-02-28T02:53:59.463Z,59.80
2023-02-28T02:56:36.694Z,59.80
2023-02-28T02:59:11.120Z,59.70
2023-02-28T03:01:44.902Z,59.80
2023-02-28T03:04:20.214Z,59.70
2023-02-28T03:06:49.303Z,59.70
2023-02-28T03:09:20.222Z,59.70
2023-02-28T03:11:50.765Z,59.70
2023-02-28T03:14:50.768Z,59.70
2023-02-28T03:17:51.591Z,59.80
2023-02-28T03:20:42.195Z,59.70
2023-02-28T03:23:27.863Z,59.80
2023-02-28T03:26:16.321Z,59.70
2023-02-28T03:28:55.732Z,59.80
2023-02-28T03:32:03.484Z,59.80
2023-02-28T03:34:45.887Z,59.70
2023-02-28T03:37:27.618Z,59.80
2023-02-28T03:40:01.395Z,59.80
2023-02-28T03:42:42.530Z,59.80
2023-02-28T03:45:24.938Z,59.70
2023-02-28T03:48:24.184Z,59.70
2023-02-28T03:50:57.531Z,59.80
2023-02-28T03:53:49.199Z,59.80
2023-02-28T03:56:40.767Z,59.80
2023-02-28T03:59:25.438Z,59.70
2023-02-28T04:01:53.542Z,59.70
2023-02-28T04:04:26.589Z,59.70
2023-02-28T04:07:10.602Z,59.70
2023-02-28T04:09:44.692Z,59.80
2023-02-28T04:12:15.002Z,59.70
2023-02-28T04:14:44.906Z,59.80
2023-02-28T04:17:13.928Z,59.80
2023-02-28T04:19:41.735Z,59.70
2023-02-28T04:22:12.440Z,59.80
2023-02-28T04:24:44.930Z,59.80
2023-02-28T04:27:17.210Z,59.80
2023-02-28T04:29:47.553Z,59.80
2023-02-28T04:32:15.532Z,59.80
2023-02-28T04:34:48.923Z,59.80
2023-02-28T04:37:24.692Z,59.70
2023-02-28T04:39:58.486Z,59.70
2023-02-28T04:42:30.487Z,59.80
2023-02-28T04:45:02.450Z,59.80
2023-02-28T04:47:31.578Z,59.80
2023-02-28T04:50:01.227Z,59.90
2023-02-28T04:52:31.329Z,59.80
2023-02-28T04:55:03.319Z,59.80
2023-02-28T04:57:32.581Z,59.70
2023-02-28T05:00:02.850Z,59.80
2023-02-28T05:02:35.617Z,59.80
2023-02-28T05:05:08.237Z,59.80
2023-02-28T05:07:40.675Z,59.80
2023-02-28T05:10:10.222Z,59.80
2023-02-28T05:12:40.720Z,59.90
2023-02-28T05:15:14.969Z,59.90
2023-02-28T05:17:47.106Z,59.90
2023-02-28T05:20:16.506Z,59.90
2023-02-28T05:22:46.522Z,59.90
2023-02-28T05:25:23.602Z,59.90
2023-02-28T05:27:55.074Z,59.80
2023-02-28T05:30:26.670Z,59.90
2023-02-28T05:32:57.579Z,59.90
2023-02-28T05:35:28.681Z,59.80
2023-02-28T05:37:59.612Z,59.90
2023-02-28T05:40:29.832Z,59.80
2023-02-28T05:43:02.394Z,59.80
2023-02-28T05:45:35.365Z,59.80
2023-02-28T05:48:07.154Z,59.80
2023-02-28T05:50:40.033Z,59.70
2023-02-28T05:53:09.476Z,59.80
2023-02-28T05:55:39.837Z,59.90
2023-02-28T05:58:13.355Z,59.80
2023-02-28T06:00:46.133Z,59.80
2023-02-28T06:03:16.071Z,59.70
2023-02-28T06:05:47.830Z,59.70
2023-02-28T06:08:16.509Z,59.70
2023-02-28T06:10:47.056Z,59.70
2023-02-28T06:13:19.066Z,59.70
2023-02-28T06:15:49.959Z,59.70
2023-02-28T06:18:24.218Z,59.60
2023-02-28T06:20:59.173Z,59.60
2023-02-28T06:23:30.599Z,59.70
2023-02-28T06:26:04.080Z,59.60
2023-02-28T06:28:33.421Z,59.60
2023-02-28T06:31:11.296Z,59.60
2023-02-28T06:33:42.108Z,59.70
2023-02-28T06:36:12.428Z,59.60
2023-02-28T06:38:44.840Z,59.50
2023-02-28T06:41:20.887Z,59.50
2023-02-28T06:44:10.784Z,59.50
2023-02-28T06:46:39.895Z,59.50
2023-02-28T06:49:12.448Z,59.50
2023-02-28T06:51:46.249Z,59.50
2023-02-28T06:54:17.099Z,59.50
2023-02-28T06:56:49.805Z,59.50
2023-02-28T06:59:26.859Z,59.50
2023-02-28T07:01:58.389Z,59.50
2023-02-28T07:04:29.850Z,59.40
2023-02-28T07:07:00.897Z,59.40
2023-02-28T07:09:33.521Z,60.00
2023-02-28T07:12:04.566Z,59.40
2023-02-28T07:14:32.924Z,59.40
2023-02-28T07:17:04.721Z,59.40
2023-02-28T07:19:34.724Z,59.30
2023-02-28T07:22:03.889Z,59.30
2023-02-28T07:24:34.284Z,59.30
2023-02-28T07:27:05.443Z,59.30
2023-02-28T07:29:36.902Z,59.30
2023-02-28T07:32:08.316Z,59.30
2023-02-28T07:34:44.285Z,59.30
2023-02-28T07:37:14.039Z,60.10
2023-02-28T07:39:45.499Z,60.80
2023-02-28T07:42:16.964Z,61.70
2023-02-28T07:44:49.184Z,61.10
2023-02-28T07:47:19.970Z,60.60
2023-02-28T07:49:50.730Z,59.80
2023-02-28T07:52:30.475Z,59.30
2023-02-28T07:55:02.857Z,58.80
2023-02-28T07:57:38.905Z,57.90
2023-02-28T08:00:10.962Z,55.60
2023-02-28T08:02:40.311Z,54.70
2023-02-28T08:05:13.310Z,55.30
2023-02-28T08:07:44.140Z,55.20
2023-02-28T08:10:13.657Z,54.90
2023-02-28T08:12:44.607Z,54.70
2023-02-28T08:15:11.738Z,53.90
2023-02-28T08:17:42.273Z,53.90
2023-02-28T08:20:11.874Z,53.70
2023-02-28T08:22:46.096Z,53.30
2023-02-28T08:25:15.795Z,53.10
2023-02-28T08:27:45.311Z,52.70
2023-02-28T08:30:17.608Z,52.30
2023-02-28T08:32:48.503Z,52.80
2023-02-28T08:35:26.972Z,51.30
2023-02-28T08:37:56.935Z,50.60
2023-02-28T08:40:30.181Z,51.10
2023-02-28T08:43:03.052Z,50.60
2023-02-28T08:45:35.112Z,50.80
2023-02-28T08:48:09.845Z,51.10
2023-02-28T08:50:37.954Z,50.80
2023-02-28T08:53:08.526Z,51.10
2023-02-28T08:55:38.862Z,51.10
2023-02-28T08:58:10.304Z,51.00
2023-02-28T09:00:42.959Z,51.50
2023-02-28T09:03:15.104Z,51.00
2023-02-28T09:06:00.844Z,51.70
2023-02-28T09:08:33.803Z,51.60
2023-02-28T09:11:04.994Z,51.40
2023-02-28T09:13:38.108Z,52.90
2023-02-28T09:16:13.014Z,52.60
2023-02-28T09:18:42.109Z,52.50
2023-02-28T09:21:23.190Z,52.30
2023-02-28T09:23:54.815Z,51.00
2023-02-28T09:26:34.666Z,50.40
2023-02-28T09:29:13.143Z,50.50
2023-02-28T09:31:42.199Z,50.70
2023-02-28T09:34:13.563Z,50.60
2023-02-28T09:36:45.622Z,50.40
2023-02-28T09:42:01.144Z,50.30
2023-02-28T09:44:50.273Z,50.30
2023-02-28T09:47:42.242Z,51.20
2023-02-28T09:50:31.201Z,50.30
2023-02-28T09:53:05.236Z,51.20
2023-02-28T09:55:53.199Z,51.40
2023-02-28T09:59:12.011Z,51.40
2023-02-28T10:01:59.803Z,50.90
2023-02-28T10:04:44.818Z,50.90
2023-02-28T10:07:24.410Z,51.20
2023-02-28T10:10:01.277Z,51.20
2023-02-28T10:12:40.087Z,51.40
2023-02-28T10:15:10.226Z,49.30
2023-02-28T10:17:55.698Z,49.30
2023-02-28T10:20:42.303Z,49.90
2023-02-28T10:23:37.878Z,50.30
2023-02-28T10:26:17.018Z,50.30
2023-02-28T10:28:47.792Z,50.50
2023-02-28T10:31:26.277Z,50.60
2023-02-28T10:34:01.607Z,50.70
2023-02-28T10:36:34.091Z,50.60
2023-02-28T10:39:04.657Z,50.50
2023-02-28T10:41:45.060Z,50.60
2023-02-28T10:44:27.612Z,51.50
2023-02-28T10:46:57.073Z,51.60
2023-02-28T10:49:31.120Z,51.50
2023-02-28T10:52:04.476Z,51.30
2023-02-28T10:54:41.028Z,51.70
2023-02-28T10:57:29.682Z,50.90
2023-02-28T11:03:34.944Z,50.60
2023-02-28T11:06:20.755Z,49.50
2023-02-28T11:09:36.086Z,49.80
2023-02-28T11:12:22.413Z,49.60
2023-02-28T11:15:06.783Z,49.30
2023-02-28T11:17:35.113Z,49.20
2023-02-28T11:20:15.613Z,48.80
2023-02-28T11:22:57.071Z,48.70
2023-02-28T11:25:30.825Z,48.60
2023-02-28T11:28:12.716Z,48.30
2023-02-28T11:30:42.100Z,48.30
2023-02-28T11:33:35.351Z,45.20
2023-02-28T11:36:17.497Z,45.90
2023-02-28T11:38:55.408Z,46.60
2023-02-28T11:41:44.835Z,47.00
2023-02-28T11:44:32.599Z,47.30
2023-02-28T11:47:16.595Z,47.70
2023-02-28T11:49:55.923Z,48.10
2023-02-28T11:53:01.611Z,48.50
2023-02-28T11:55:57.315Z,48.70
2023-02-28T11:58:38.298Z,49.00
2023-02-28T12:01:27.925Z,49.30
2023-02-28T12:04:27.172Z,49.30
2023-02-28T12:07:19.776Z,49.40
2023-02-28T12:10:22.747Z,49.50
2023-02-28T12:13:23.107Z,49.60
2023-02-28T12:16:23.398Z,49.70
2023-02-28T12:19:18.119Z,49.90
2023-02-28T12:22:10.616Z,49.80
2023-02-28T12:25:00.930Z,49.90
2023-02-28T12:27:40.308Z,50.00
2023-02-28T12:30:38.995Z,49.80
2023-02-28T12:33:25.444Z,49.90
2023-02-28T12:36:04.584Z,50.10
2023-02-28T12:38:58.086Z,50.20
2023-02-28T12:41:39.895Z,50.50
2023-02-28T12:44:29.505Z,50.50
2023-02-28T12:47:08.812Z,50.50
2023-02-28T12:49:48.054Z,50.30
2023-02-28T12:55:52.641Z,50.50
2023-02-28T12:58:46.396Z,50.60
2023-02-28T13:01:50.645Z,50.60
2023-02-28T13:04:49.812Z,50.60
2023-02-28T13:07:57.388Z,50.80
2023-02-28T13:10:31.524Z,50.70
2023-02-28T13:13:04.439Z,50.70
2023-02-28T13:15:37.116Z,50.70
2023-02-28T13:18:09.075Z,50.90
2023-02-28T13:20:40.430Z,50.90
2023-02-28T13:24:00.877Z,51.00
2023-02-28T13:27:01.420Z,50.80
2023-02-28T13:29:54.192Z,51.10
2023-02-28T13:32:31.488Z,51.20
2023-02-28T13:35:03.398Z,51.30
2023-02-28T13:37:51.993Z,51.20
2023-02-28T13:40:45.151Z,51.30
2023-02-28T13:43:53.880Z,51.10
2023-02-28T13:46:24.025Z,51.10
2023-02-28T13:48:56.191Z,51.20
2023-02-28T13:51:48.503Z,51.40
2023-02-28T13:54:58.488Z,51.50
2023-02-28T13:58:09.164Z,51.50
2023-02-28T14:01:15.650Z,51.50
2023-02-28T14:04:09.804Z,51.60
2023-02-28T14:06:42.541Z,51.60
2023-02-28T14:09:39.599Z,51.60
2023-02-28T14:12:46.732Z,51.60
2023-02-28T14:15:59.852Z,51.70
2023-02-28T14:18:39.309Z,51.80
2023-02-28T14:21:58.861Z,51.70
2023-02-28T14:24:56.989Z,51.60
2023-02-28T14:27:53.439Z,51.60
2023-02-28T14:31:07.569Z,51.70
2023-02-28T14:33:57.751Z,51.80
2023-02-28T14:36:37.740Z,51.90
2023-02-28T14:39:23.518Z,51.90
2023-02-28T14:41:55.335Z,51.90
2023-02-28T14:44:30.330Z,52.00
2023-02-28T14:47:12.166Z,51.90
2023-02-28T14:49:47.680Z,52.00
2023-02-28T14:52:25.924Z,52.00
2023-02-28T14:55:17.311Z,51.90
2023-02-28T14:58:04.350Z,52.00
2023-02-28T15:00:38.779Z,52.20
2023-02-28T15:03:40.798Z,52.20
2023-02-28T15:09:25.318Z,52.10
2023-02-28T15:11:57.793Z,52.20
2023-02-28T15:14:31.967Z,52.20
2023-02-28T15:17:06.620Z,52.30
2023-02-28T15:19:49.841Z,52.40
2023-02-28T15:22:38.573Z,52.30
2023-02-28T15:25:09.715Z,52.30
2023-02-28T15:27:58.395Z,52.40
2023-02-28T15:30:36.788Z,52.50
2023-02-28T15:33:30.307Z,52.40
2023-02-28T15:36:16.262Z,52.40
2023-02-28T15:38:50.914Z,52.40
2023-02-28T15:41:44.094Z,52.50
2023-02-28T15:44:39.598Z,52.40
2023-02-28T15:47:21.458Z,52.50
2023-02-28T15:50:26.883Z,52.40
2023-02-28T15:52:56.368Z,52.60
2023-02-28T15:55:32.837Z,52.50
2023-02-28T15:58:05.837Z,52.60
2023-02-28T16:00:36.473Z,52.60
2023-02-28T16:03:23.785Z,52.60
2023-02-28T16:06:13.573Z,53.10
2023-02-28T16:08:50.868Z,52.70
2023-02-28T16:11:21.071Z,52.60
2023-02-28T16:13:48.127Z,52.60
2023-02-28T16:16:23.276Z,52.60
2023-02-28T16:18:55.434Z,52.50
2023-02-28T16:21:26.203Z,52.50
2023-02-28T16:23:58.499Z,52.40
2023-02-28T16:26:32.589Z,52.60
2023-02-28T16:28:59.636Z,52.80
2023-02-28T16:31:30.037Z,52.60
2023-02-28T16:33:59.421Z,52.40
2023-02-28T16:36:30.259Z,52.40
2023-02-28T16:38:58.243Z,52.50
2023-02-28T16:41:32.450Z,52.40
2023-02-28T16:44:01.987Z,52.60
2023-02-28T16:46:40.319Z,52.30
2023-02-28T16:49:14.261Z,52.00
2023-02-28T16:51:45.442Z,52.10
2023-02-28T16:54:33.522Z,52.10
2023-02-28T16:57:06.523Z,52.10
2023-02-28T16:59:38.032Z,52.30
2023-02-28T17:02:17.711Z,52.20
2023-02-28T17:04:48.193Z,52.30
2023-02-28T17:07:20.504Z,52.30
2023-02-28T17:09:52.562Z,52.40
2023-02-28T17:12:21.671Z,52.30
2023-02-28T17:14:52.833Z,52.20
2023-02-28T17:17:25.431Z,52.20
2023-02-28T17:20:05.714Z,52.10
2023-02-28T17:22:35.965Z,52.20
2023-02-28T17:25:27.317Z,52.20
2023-02-28T17:27:57.175Z,52.20
2023-02-28T17:30:30.810Z,52.20
2023-02-28T17:33:01.205Z,52.30
2023-02-28T17:35:35.371Z,52.40
2023-02-28T17:38:08.411Z,52.30
2023-02-28T17:43:21.942Z,52.30
2023-02-28T17:45:54.251Z,52.30
2023-02-28T17:48:23.763Z,52.30
2023-02-28T17:50:55.308Z,52.30
2023-02-28T17:53:27.013Z,52.20
2023-02-28T17:55:58.645Z,52.40
2023-02-28T17:58:29.132Z,52.30
2023-02-28T18:00:57.436Z,52.40
2023-02-28T18:03:29.611Z,52.10
2023-02-28T18:06:02.132Z,52.10
2023-02-28T18:08:30.248Z,52.20
2023-02-28T18:11:01.960Z,52.10
2023-02-28T18:13:32.353Z,52.10
2023-02-28T18:16:07.191Z,52.20
2023-02-28T18:18:39.720Z,52.20
2023-02-28T18:21:12.000Z,52.30
2023-02-28T18:23:50.715Z,52.20
2023-02-28T18:26:22.760Z,52.20
2023-02-28T18:28:53.479Z,52.30
2023-02-28T18:31:25.266Z,52.30
2023-02-28T18:33:55.650Z,52.40
2023-02-28T18:36:29.165Z,52.40
2023-02-28T18:38:59.907Z,52.30
2023-02-28T18:41:29.875Z,52.40
2023-02-28T18:44:03.071Z,52.40
2023-02-28T18:46:41.850Z,52.20
2023-02-28T18:49:10.683Z,52.20
2023-02-28T18:51:41.304Z,52.20
2023-02-28T18:54:12.397Z,52.20
2023-02-28T18:59:28.530Z,52.20
2023-02-28T19:02:03.988Z,52.20
2023-02-28T19:04:36.176Z,52.20
2023-02-28T19:07:05.133Z,52.80
2023-02-28T19:09:35.172Z,52.20
2023-02-28T19:12:06.670Z,52.20
2023-02-28T19:14:36.254Z,52.10
2023-02-28T19:17:06.786Z,52.20
2023-02-28T19:19:38.146Z,52.10
2023-02-28T19:22:19.488Z,52.10
2023-02-28T19:24:51.948Z,52.00
2023-02-28T19:27:20.327Z,52.10
2023-02-28T19:29:56.155Z,52.10
2023-02-28T19:32:26.836Z,52.10
2023-02-28T19:34:58.230Z,52.00
2023-02-28T19:37:28.868Z,52.00
2023-02-28T19:40:04.727Z,52.00
2023-02-28T19:42:36.836Z,52.10
2023-02-28T19:45:10.834Z,52.60
2023-02-28T19:47:51.470Z,53.00
2023-02-28T19:50:20.956Z,52.80
2023-02-28T19:52:57.073Z,52.70
2023-02-28T19:55:29.838Z,52.70
2023-02-28T19:58:05.449Z,52.70
2023-02-28T20:00:34.490Z,52.70
2023-02-28T20:03:05.773Z,52.60
2023-02-28T20:05:35.315Z,52.50
2023-02-28T20:08:07.094Z,52.40
2023-02-28T20:10:36.587Z,52.50
2023-02-28T20:13:05.107Z,52.40
2023-02-28T20:15:36.023Z,53.00
2023-02-28T20:18:07.383Z,52.30
2023-02-28T20:20:46.846Z,52.20
2023-02-28T20:23:15.660Z,52.30
2023-02-28T20:25:47.246Z,52.30
2023-02-28T20:28:14.074Z,52.30
2023-02-28T20:30:47.744Z,52.20
2023-02-28T20:33:23.053Z,52.20
2023-02-28T20:35:59.201Z,52.20
2023-02-28T20:38:30.225Z,52.20
2023-02-28T20:41:03.981Z,52.20
2023-02-28T20:43:33.511Z,52.20
2023-02-28T20:46:05.883Z,52.20
2023-02-28T20:48:41.714Z,52.70
2023-02-28T20:51:11.264Z,52.10
2023-02-28T20:53:40.736Z,52.00
2023-02-28T20:56:19.473Z,52.00
2023-02-28T20:58:51.794Z,52.00
2023-02-28T21:04:09.305Z,51.90
2023-02-28T21:07:06.051Z,51.90
2023-02-28T21:09:37.537Z,51.90
2023-02-28T21:12:07.626Z,51.90
2023-02-28T21:14:35.668Z,51.90
2023-02-28T21:17:06.818Z,51.90
2023-02-28T21:19:37.099Z,51.90
2023-02-28T21:22:09.479Z,51.90
2023-02-28T21:24:39.392Z,51.80
2023-02-28T21:27:11.938Z,51.90
2023-02-28T21:29:42.395Z,51.80
2023-02-28T21:32:14.514Z,51.90
2023-02-28T21:34:43.593Z,51.80
2023-02-28T21:37:12.201Z,51.90
2023-02-28T21:39:42.644Z,52.00
2023-02-28T21:42:16.085Z,51.90
2023-02-28T21:44:46.824Z,51.90
2023-02-28T21:47:18.113Z,51.90
2023-02-28T21:49:48.590Z,52.00
2023-02-28T21:52:26.459Z,52.00
2023-02-28T21:54:57.532Z,52.00
2023-02-28T21:57:28.134Z,52.10
2023-02-28T22:00:00.272Z,52.30
2023-02-28T22:02:30.618Z,52.30
2023-02-28T22:05:07.271Z,52.60
2023-02-28T22:07:37.407Z,52.70
2023-02-28T22:10:07.706Z,52.80
2023-02-28T22:12:39.597Z,52.90
2023-02-28T22:15:15.264Z,53.00
2023-02-28T22:17:45.805Z,53.10
2023-02-28T22:20:17.488Z,53.30
2023-02-28T22:22:50.985Z,53.30
2023-02-28T22:25:23.162Z,53.40
2023-02-28T22:27:54.402Z,53.40
2023-02-28T22:30:24.013Z,53.40
2023-02-28T22:32:55.360Z,53.50
2023-02-28T22:35:25.779Z,53.60
2023-02-28T22:37:54.826Z,53.70
2023-02-28T22:40:35.703Z,53.70
2023-02-28T22:45:49.660Z,53.80
2023-02-28T22:48:16.690Z,53.90
2023-02-28T22:50:48.413Z,54.00
2023-02-28T22:53:16.468Z,54.10
2023-02-28T22:55:44.834Z,54.00
2023-02-28T22:58:16.636Z,54.10
2023-02-28T23:00:47.625Z,54.10
2023-02-28T23:03:17.770Z,54.20
2023-02-28T23:05:45.543Z,54.30
2023-02-28T23:08:13.696Z,54.30
2023-02-28T23:10:46.170Z,54.30
2023-02-28T23:13:15.502Z,54.20
2023-02-28T23:15:50.228Z,54.30
2023-02-28T23:18:19.817Z,54.40
2023-02-28T23:20:49.301Z,54.40
2023-02-28T23:23:17.208Z,54.50
2023-02-28T23:25:46.254Z,54.50
2023-02-28T23:28:14.400Z,54.50
2023-02-28T23:30:44.729Z,54.70
2023-02-28T23:33:15.419Z,54.60
2023-02-28T23:35:48.096Z,54.60
2023-02-28T23:38:17.732Z,54.70
2023-02-28T23:40:48.198Z,54.80
2023-02-28T23:43:21.159Z,54.70
2023-02-28T23:46:00.389Z,54.80
2023-02-28T23:48:29.047Z,54.80
2023-02-28T23:51:17.218Z,54.80
2023-02-28T23:53:49.962Z,54.90
2023-02-28T23:56:21.590Z,55.00
2023-02-28T23:58:51.315Z,55.00
